North Cascades National Park, WA

4:22 AM PST on February 13, 2016 (GMT -0800)
Newhalem Helistop | | Change Station
CLOSE
Current Station
Personal Weather Station
Location: Newhalem, WA
Elevation: 504 ft
Nearby Weather Stations
Active Advisory: Winter Weather Advisory

Elev 504 ft 48.67 °N, 121.25 °W | Updated 37 seconds ago

Rain
Rain
42.3 °F
Feels Like 42 °F
N
0.0
Wind Variable Wind from NW
Gusts 5.0 mph

Today
High -- | Low -- °F
--% Chance of Precip.
Yesterday
High -- | Low -- °F
Precip. -- in
Pressure 30.25 in
Visibility 10.0 miles
Clouds Overcast 1900 ft
Windchill 42 °F
Dew Point 42 °F
Humidity 100%
Rainfall 0.02 in
Snow Depth Not available.
7:17 AM 5:23 PM
Waxing Crescent, 30% visible
METAR KAWO 131215Z AUTO 17009KT 10SM OVC019 07/03 A3025 RMK AO1
Pressure 30.25 in
Visibility 10.0 miles
Clouds Overcast 1900 ft
Windchill 42 °F
Dew Point 42 °F
Humidity 100%
Rainfall 0.02 in
Snow Depth Not available.
7:17 AM 5:23 PM
Waxing Crescent, 30% visible
METAR KAWO 131215Z AUTO 17009KT 10SM OVC019 07/03 A3025 RMK AO1

10-Day Weather Forecast

Almanac

Astronomy

Feb. 13, 2016 Rise Set
Actual Time
Civil Twilight
Nautical Twilight
Astronomical Twilight
Moon
Length of Visible Light
Length of Day
Tomorrow will be .
, % of the Moon is Illuminated

Today's Extremes

State Highs State Lows

Community

WunderPhotos

Upload Photos

1,892,543 photos uploaded!

WunderBlog® & News

Nearby

Air Quality

  Air Quality AQ Index Pollutant
Not available.

Snow Depth

Station Depth Elevation

Earthquake Activity

City Distance Mag. Time & Date
Minimum magnitude displayed is 2.5.

Coastal Water Temperatures

Place Temperature

Stations

Nearby Weather Stations

Station Location Temp. Windchill Dew Point Humidity Wind Precip. Elev Updated Type
                   

Watches & Warnings

Winter Weather Advisory
Issued: 3:53 AM PST Feb. 13, 2016 – National Weather Service

... Winter Weather Advisory now in effect until 4 am PST Sunday...

* accumulations... 7 to 14 inches of additional snow is expected
through early Sunday morning above 3500 feet.

* Some affected locations... Mount Baker ski area.

* Main impact... snow covered roads and reduced visibilities at
times.

Precautionary/preparedness actions...

A Winter Weather Advisory for snow means that snow will cause
primarily travel difficulties. Use caution while driving.